createdAt,value
2018-06-02T00:01:37.491Z,7.20
2018-06-02T00:04:05.742Z,9.03
2018-06-02T00:06:34.008Z,7.87
2018-06-02T00:09:03.023Z,7.47
2018-06-02T00:11:31.288Z,7.27
2018-06-02T00:14:00.307Z,7.53
2018-06-02T00:16:28.564Z,6.80
2018-06-02T00:18:56.819Z,8.80
2018-06-02T00:21:25.431Z,7.70
2018-06-02T00:23:54.455Z,7.50
2018-06-02T00:26:22.707Z,7.70
2018-06-02T00:28:51.738Z,7.77
2018-06-02T00:31:20.092Z,10.27
2018-06-02T00:33:48.344Z,7.87
2018-06-02T00:36:16.618Z,9.83
2018-06-02T00:38:44.872Z,11.43
2018-06-02T00:41:13.139Z,11.10
2018-06-02T00:43:41.391Z,8.33
2018-06-02T00:46:11.675Z,9.20
2018-06-02T00:48:39.923Z,9.60
2018-06-02T00:51:08.192Z,7.40
2018-06-02T00:53:36.447Z,7.90
2018-06-02T00:56:05.998Z,8.17
2018-06-02T00:58:34.254Z,8.37
2018-06-02T01:01:02.527Z,6.60
2018-06-02T01:03:31.630Z,8.10
2018-06-02T01:05:59.903Z,7.67
2018-06-02T01:08:28.919Z,7.67
2018-06-02T01:10:57.167Z,9.60
2018-06-02T01:13:25.448Z,6.70
2018-06-02T01:15:54.467Z,7.27
2018-06-02T01:18:22.747Z,8.77
2018-06-02T01:20:51.829Z,8.17
2018-06-02T01:23:20.051Z,8.87
2018-06-02T01:25:48.303Z,6.47
2018-06-02T01:28:17.335Z,7.80
2018-06-02T01:30:45.599Z,7.63
2018-06-02T01:33:14.175Z,6.17
2018-06-02T01:35:42.551Z,10.17
2018-06-02T01:38:11.575Z,7.67
2018-06-02T01:40:39.831Z,7.07
2018-06-02T01:43:08.087Z,9.20
2018-06-02T01:45:36.359Z,8.40
2018-06-02T01:48:04.627Z,7.30
2018-06-02T01:50:32.887Z,8.37
2018-06-02T01:53:01.155Z,6.63
2018-06-02T01:55:29.418Z,8.83
2018-06-02T01:57:58.439Z,5.87
2018-06-02T02:00:26.705Z,7.50
2018-06-02T02:02:54.974Z,5.65
2018-06-02T02:05:23.995Z,7.53
2018-06-02T02:07:52.264Z,6.05
2018-06-02T02:10:20.524Z,7.47
2018-06-02T02:12:49.558Z,5.17
2018-06-02T02:15:17.814Z,7.57
2018-06-02T02:17:46.082Z,7.37
2018-06-02T02:20:15.100Z,5.87
2018-06-02T02:22:43.367Z,4.80
2018-06-02T02:25:12.397Z,7.25
2018-06-02T02:27:40.673Z,5.60
2018-06-02T02:30:08.928Z,6.20
2018-06-02T02:32:37.210Z,6.03
2018-06-02T02:35:05.465Z,5.47
2018-06-02T02:37:33.731Z,8.27
2018-06-02T02:40:01.991Z,6.60
2018-06-02T02:42:30.252Z,9.70
2018-06-02T02:44:58.528Z,10.63
2018-06-02T02:47:26.783Z,7.37
2018-06-02T02:49:55.814Z,7.27
2018-06-02T02:52:24.087Z,10.07
2018-06-02T02:54:52.335Z,6.07
2018-06-02T02:57:21.372Z,6.67
2018-06-02T02:59:49.627Z,6.37
2018-06-02T03:02:18.642Z,7.33
2018-06-02T03:04:46.904Z,5.97
2018-06-02T03:07:15.159Z,8.98
2018-06-02T03:09:43.428Z,5.50
2018-06-02T03:12:11.687Z,7.23
2018-06-02T03:14:39.944Z,8.00
2018-06-02T03:17:08.199Z,9.27
2018-06-02T03:19:37.231Z,8.13
2018-06-02T03:22:05.487Z,5.73
2018-06-02T03:24:34.519Z,5.70
2018-06-02T03:27:02.773Z,8.50
2018-06-02T03:29:31.043Z,6.97
2018-06-02T03:31:59.293Z,8.05
2018-06-02T03:34:27.567Z,8.03
2018-06-02T03:36:55.826Z,5.83
2018-06-02T03:39:24.091Z,5.83
2018-06-02T03:41:52.347Z,7.68
2018-06-02T03:44:20.611Z,6.80
2018-06-02T03:46:48.868Z,6.40
2018-06-02T03:49:17.134Z,7.00
2018-06-02T03:51:45.391Z,6.50
2018-06-02T03:54:13.651Z,5.90
2018-06-02T03:56:41.903Z,5.70
2018-06-02T03:59:10.211Z,5.83
2018-06-02T04:01:39.497Z,5.93
2018-06-02T04:04:08.527Z,6.43
2018-06-02T04:06:36.776Z,7.70
2018-06-02T04:09:05.813Z,7.73
2018-06-02T04:11:34.072Z,5.80
2018-06-02T04:14:02.348Z,5.23
2018-06-02T04:16:31.478Z,6.00
2018-06-02T04:18:59.755Z,10.50
2018-06-02T04:21:29.056Z,5.10
2018-06-02T04:23:57.329Z,5.62
2018-06-02T04:26:25.582Z,5.83
2018-06-02T04:28:54.590Z,6.17
2018-06-02T04:31:22.858Z,5.83
2018-06-02T04:33:51.899Z,6.62
2018-06-02T04:36:20.156Z,6.03
2018-06-02T04:38:48.415Z,4.70
2018-06-02T04:41:17.446Z,7.00
2018-06-02T04:43:45.695Z,6.30
2018-06-02T04:46:14.706Z,6.20
2018-06-02T04:48:42.977Z,4.83
2018-06-02T04:51:12.016Z,4.70
2018-06-02T04:53:43.264Z,5.87
2018-06-02T04:56:11.540Z,4.13
2018-06-02T04:58:39.792Z,6.90
2018-06-02T05:01:08.840Z,5.90
2018-06-02T05:03:37.115Z,5.50
2018-06-02T05:06:05.379Z,6.80
2018-06-02T05:08:33.628Z,4.60
2018-06-02T05:11:02.649Z,5.60
2018-06-02T05:13:30.904Z,5.77
2018-06-02T05:16:01.426Z,6.07
2018-06-02T05:18:29.676Z,5.68
2018-06-02T05:20:58.010Z,6.07
2018-06-02T05:23:26.286Z,5.00
2018-06-02T05:25:55.314Z,4.43
2018-06-02T05:28:23.562Z,7.22
2018-06-02T05:30:51.830Z,6.80
2018-06-02T05:33:20.863Z,6.97
2018-06-02T05:35:49.231Z,5.03
2018-06-02T05:38:17.503Z,5.07
2018-06-02T05:40:46.535Z,6.97
2018-06-02T05:43:14.784Z,5.20
2018-06-02T05:45:43.071Z,6.12
2018-06-02T05:48:11.328Z,5.35
2018-06-02T05:50:40.365Z,6.93
2018-06-02T05:53:08.631Z,6.82
2018-06-02T05:55:36.896Z,7.35
2018-06-02T05:58:05.920Z,6.10
2018-06-02T06:00:34.285Z,6.28
2018-06-02T06:03:03.307Z,6.33
2018-06-02T06:05:31.574Z,6.17
2018-06-02T06:07:59.825Z,6.55
2018-06-02T06:10:28.852Z,6.00
2018-06-02T06:12:57.118Z,6.87
2018-06-02T06:15:26.231Z,7.03
2018-06-02T06:17:54.475Z,4.87
2018-06-02T06:20:22.756Z,7.43
2018-06-02T06:22:50.994Z,5.37
2018-06-02T06:25:19.267Z,5.00
2018-06-02T06:27:47.523Z,5.72
2018-06-02T06:30:16.551Z,5.65
2018-06-02T06:32:44.822Z,4.93
2018-06-02T06:35:13.071Z,6.33
2018-06-02T06:37:43.348Z,6.07
2018-06-02T06:40:12.345Z,6.60
2018-06-02T06:42:40.604Z,4.83
2018-06-02T06:45:08.855Z,4.33
2018-06-02T06:47:37.891Z,6.15
2018-06-02T06:50:06.139Z,4.65
2018-06-02T06:52:35.170Z,3.97
2018-06-02T06:55:03.439Z,4.90
2018-06-02T06:57:31.687Z,4.03
2018-06-02T07:00:00.723Z,5.85
2018-06-02T07:02:28.992Z,3.90
2018-06-02T07:04:57.243Z,4.70
2018-06-02T07:07:26.276Z,5.65
2018-06-02T07:09:54.532Z,5.32
2018-06-02T07:12:23.564Z,4.75
2018-06-02T07:14:51.823Z,5.40
2018-06-02T07:17:20.098Z,4.20
2018-06-02T07:19:48.355Z,5.57
2018-06-02T07:22:16.634Z,5.20
2018-06-02T07:24:44.888Z,4.47
2018-06-02T07:27:13.151Z,4.22
2018-06-02T07:29:41.403Z,4.62
2018-06-02T07:32:09.684Z,4.10
2018-06-02T07:34:37.979Z,4.83
2018-06-02T07:37:06.232Z,5.78
2018-06-02T07:39:35.254Z,4.57
2018-06-02T07:42:03.514Z,4.53
2018-06-02T07:44:32.536Z,4.00
2018-06-02T07:47:00.798Z,4.57
2018-06-02T07:49:29.050Z,5.35
2018-06-02T07:51:57.581Z,4.03
2018-06-02T07:54:25.844Z,3.50
2018-06-02T07:56:54.864Z,6.43
2018-06-02T07:59:23.138Z,3.95
2018-06-02T08:01:51.403Z,4.47
2018-06-02T08:04:20.422Z,3.73
2018-06-02T08:06:48.682Z,4.13
2018-06-02T08:09:16.934Z,7.22
2018-06-02T08:11:45.204Z,4.93
2018-06-02T08:14:13.459Z,3.87
2018-06-02T08:16:41.731Z,6.32
2018-06-02T08:19:09.983Z,5.90
2018-06-02T08:21:39.007Z,4.07
2018-06-02T08:24:07.274Z,5.72
2018-06-02T08:26:35.551Z,3.47
2018-06-02T08:29:04.647Z,4.82
2018-06-02T08:31:32.904Z,4.40
2018-06-02T08:34:01.927Z,4.10
2018-06-02T08:36:30.199Z,5.25
2018-06-02T08:38:59.292Z,4.60
2018-06-02T08:41:27.490Z,3.40
2018-06-02T08:43:55.747Z,3.77
2018-06-02T08:46:24.787Z,3.43
2018-06-02T08:48:53.046Z,4.55
2018-06-02T08:51:21.317Z,3.35
2018-06-02T08:53:50.352Z,4.20
2018-06-02T08:56:19.415Z,3.47
2018-06-02T08:58:47.684Z,5.73
2018-06-02T09:01:17.430Z,3.38
2018-06-02T09:03:45.695Z,3.90
2018-06-02T09:06:13.971Z,3.07
2018-06-02T09:08:43.002Z,3.70
2018-06-02T09:11:11.257Z,4.12
2018-06-02T09:13:39.512Z,3.50
2018-06-02T09:16:08.547Z,3.22
2018-06-02T09:18:36.806Z,5.03
2018-06-02T09:21:05.068Z,3.60
2018-06-02T09:23:34.097Z,4.15
2018-06-02T09:26:02.364Z,2.95
2018-06-02T09:28:31.466Z,3.93
2018-06-02T09:30:59.724Z,4.40
2018-06-02T09:33:28.754Z,3.40
2018-06-02T09:35:57.008Z,4.40
2018-06-02T09:38:26.036Z,3.50
2018-06-02T09:40:54.301Z,4.07
2018-06-02T09:43:22.996Z,3.76
2018-06-02T09:45:51.243Z,5.72
2018-06-02T09:48:19.515Z,4.03
2018-06-02T09:50:47.775Z,3.73
2018-06-02T09:53:16.039Z,3.42
2018-06-02T09:55:44.291Z,4.12
2018-06-02T09:58:12.563Z,2.55
2018-06-02T10:00:41.585Z,3.23
2018-06-02T10:03:09.858Z,3.05
2018-06-02T10:05:38.103Z,3.12
2018-06-02T10:08:06.369Z,3.40
2018-06-02T10:10:34.658Z,4.50
2018-06-02T10:13:02.895Z,3.90
2018-06-02T10:15:31.171Z,2.92
2018-06-02T10:17:59.440Z,3.72
2018-06-02T10:20:27.704Z,4.93
2018-06-02T10:22:56.739Z,2.70
2018-06-02T10:25:24.996Z,3.60
2018-06-02T10:27:53.259Z,4.30
2018-06-02T10:30:22.284Z,4.13
2018-06-02T10:32:50.548Z,3.10
2018-06-02T10:35:19.579Z,2.78
2018-06-02T10:37:47.831Z,4.40
2018-06-02T10:40:16.099Z,2.90
2018-06-02T10:42:45.121Z,2.50
2018-06-02T10:45:13.383Z,3.33
2018-06-02T10:47:41.646Z,5.05
2018-06-02T10:50:10.680Z,3.03
2018-06-02T10:52:38.932Z,3.00
2018-06-02T10:55:07.368Z,2.68
2018-06-02T10:57:35.636Z,3.10
2018-06-02T11:00:03.897Z,2.85
2018-06-02T11:02:32.145Z,2.87
2018-06-02T11:05:00.418Z,5.40
2018-06-02T11:07:28.736Z,3.05
2018-06-02T11:09:57.003Z,2.85
2018-06-02T11:12:26.027Z,3.03
2018-06-02T11:14:54.291Z,2.70
2018-06-02T11:17:22.547Z,3.72
2018-06-02T11:19:50.811Z,3.05
2018-06-02T11:22:19.067Z,2.87
2018-06-02T11:24:47.335Z,2.45
2018-06-02T11:27:15.591Z,2.40
2018-06-02T11:29:44.619Z,4.37
2018-06-02T11:32:12.888Z,2.77
2018-06-02T11:34:41.172Z,3.65
2018-06-02T11:37:09.412Z,3.08
2018-06-02T11:39:37.666Z,2.90
2018-06-02T11:42:05.920Z,2.87
2018-06-02T11:44:34.186Z,2.40
2018-06-02T11:47:02.444Z,3.65
2018-06-02T11:49:31.471Z,2.30
2018-06-02T11:51:59.839Z,2.40
2018-06-02T11:54:28.104Z,2.70
2018-06-02T11:56:57.151Z,4.06
2018-06-02T11:59:25.446Z,3.25
2018-06-02T12:01:53.679Z,2.60
2018-06-02T12:04:21.955Z,3.93
2018-06-02T12:06:50.233Z,3.15
2018-06-02T12:09:19.259Z,3.08
2018-06-02T12:11:47.503Z,2.97
2018-06-02T12:14:16.544Z,5.10
2018-06-02T12:16:44.791Z,3.67
2018-06-02T12:19:13.044Z,2.10
2018-06-02T12:21:41.312Z,2.53
2018-06-02T12:24:09.573Z,4.37
2018-06-02T12:26:37.857Z,3.45
2018-06-02T12:29:06.102Z,2.67
2018-06-02T12:31:34.366Z,2.83
2018-06-02T12:34:03.385Z,2.20
2018-06-02T12:36:31.649Z,4.28
2018-06-02T12:38:59.912Z,5.05
2018-06-02T12:41:28.957Z,2.30
2018-06-02T12:43:57.199Z,3.60
2018-06-02T12:46:26.231Z,4.07
2018-06-02T12:48:55.248Z,2.98
2018-06-02T12:51:23.507Z,2.75
2018-06-02T12:53:51.762Z,3.40
2018-06-02T12:56:20.042Z,4.03
2018-06-02T12:58:49.058Z,3.12
2018-06-02T13:01:17.323Z,2.60
2018-06-02T13:03:46.352Z,2.50
2018-06-02T13:06:14.612Z,3.47
2018-06-02T13:08:42.883Z,3.03
2018-06-02T13:11:11.148Z,2.58
2018-06-02T13:13:40.172Z,3.50
2018-06-02T13:16:08.445Z,2.40
2018-06-02T13:18:37.462Z,3.37
2018-06-02T13:21:05.711Z,2.58
2018-06-02T13:23:34.722Z,2.87
2018-06-02T13:26:03.002Z,3.87
2018-06-02T13:28:32.005Z,2.40
2018-06-02T13:31:00.270Z,2.67
2018-06-02T13:33:29.296Z,3.28
2018-06-02T13:35:57.567Z,2.27
2018-06-02T13:38:25.815Z,2.87
2018-06-02T13:40:54.847Z,2.08
2018-06-02T13:43:23.099Z,2.85
2018-06-02T13:45:52.130Z,2.30
2018-06-02T13:48:20.393Z,2.65
2018-06-02T13:50:49.423Z,2.50
2018-06-02T13:53:17.679Z,2.87
2018-06-02T13:55:45.938Z,3.58
2018-06-02T13:58:15.051Z,2.70
2018-06-02T14:00:43.298Z,3.23
2018-06-02T14:03:11.626Z,3.67
2018-06-02T14:05:39.870Z,1.98
2018-06-02T14:08:08.910Z,2.47
2018-06-02T14:10:37.159Z,3.60
2018-06-02T14:13:06.195Z,2.55
2018-06-02T14:15:34.448Z,3.17
2018-06-02T14:18:02.715Z,2.20
2018-06-02T14:20:31.727Z,2.03
2018-06-02T14:23:00.746Z,2.17
2018-06-02T14:25:29.062Z,3.53
2018-06-02T14:27:58.038Z,3.77
2018-06-02T14:30:26.387Z,2.62
2018-06-02T14:32:54.640Z,4.68
2018-06-02T14:35:23.666Z,2.78
2018-06-02T14:37:51.938Z,2.97
2018-06-02T14:40:21.042Z,2.53
2018-06-02T14:42:49.309Z,2.80
2018-06-02T14:45:18.319Z,2.45
2018-06-02T14:47:46.574Z,3.03
2018-06-02T14:50:14.945Z,3.30
2018-06-02T14:52:43.195Z,3.87
2018-06-02T14:55:11.511Z,4.18
2018-06-02T14:57:39.727Z,3.30
2018-06-02T15:00:08.742Z,2.53
2018-06-02T15:02:37.008Z,3.15
2018-06-02T15:05:05.270Z,3.90
2018-06-02T15:07:34.298Z,3.07
2018-06-02T15:10:02.559Z,4.30
2018-06-02T15:12:31.603Z,3.62
2018-06-02T15:14:59.860Z,2.53
2018-06-02T15:17:28.462Z,2.63
2018-06-02T15:19:57.443Z,3.80
2018-06-02T15:22:25.699Z,4.07
2018-06-02T15:24:53.971Z,3.83
2018-06-02T15:27:23.340Z,3.90
2018-06-02T15:29:51.596Z,3.37
2018-06-02T15:32:19.847Z,3.12
2018-06-02T15:34:48.117Z,2.22
2018-06-02T15:37:17.154Z,3.62
2018-06-02T15:39:45.395Z,3.10
2018-06-02T15:42:14.514Z,3.18
2018-06-02T15:44:42.714Z,3.92
2018-06-02T15:47:10.975Z,2.67
2018-06-02T15:49:39.261Z,4.10
2018-06-02T15:52:07.499Z,2.60
2018-06-02T15:54:36.473Z,3.92
2018-06-02T15:57:04.729Z,2.60
2018-06-02T15:59:33.042Z,3.50
2018-06-02T16:02:01.257Z,2.80
2018-06-02T16:04:30.287Z,3.25
2018-06-02T16:06:58.547Z,6.07
2018-06-02T16:09:26.806Z,3.47
2018-06-02T16:11:55.828Z,2.23
2018-06-02T16:14:24.096Z,3.78
2018-06-02T16:16:53.112Z,3.47
2018-06-02T16:19:21.379Z,4.13
2018-06-02T16:21:49.633Z,2.37
2018-06-02T16:24:18.671Z,2.78
2018-06-02T16:26:46.925Z,2.95
2018-06-02T16:29:15.989Z,3.17
2018-06-02T16:31:44.410Z,3.23
2018-06-02T16:34:13.454Z,2.85
2018-06-02T16:36:41.714Z,3.85
2018-06-02T16:39:09.976Z,3.87
2018-06-02T16:41:38.275Z,3.95
2018-06-02T16:44:06.530Z,3.45
2018-06-02T16:46:35.551Z,5.10
2018-06-02T16:49:03.817Z,3.10
2018-06-02T16:51:32.867Z,2.33
2018-06-02T16:54:01.135Z,3.07
2018-06-02T16:56:29.483Z,2.55
2018-06-02T16:58:57.751Z,4.10
2018-06-02T17:01:26.767Z,2.67
2018-06-02T17:03:55.035Z,2.43
2018-06-02T17:06:23.598Z,4.50
2018-06-02T17:08:51.864Z,5.62
2018-06-02T17:11:20.120Z,2.57
2018-06-02T17:13:48.387Z,6.00
2018-06-02T17:16:16.748Z,3.65
2018-06-02T17:18:45.028Z,2.45
2018-06-02T17:21:14.036Z,3.30
2018-06-02T17:23:42.548Z,2.50
2018-06-02T17:26:10.799Z,2.53
2018-06-02T17:28:39.065Z,3.15
2018-06-02T17:31:08.131Z,2.30
2018-06-02T17:33:36.362Z,2.87
2018-06-02T17:36:04.622Z,4.20
2018-06-02T17:38:33.651Z,3.42
2018-06-02T17:41:01.908Z,2.67
2018-06-02T17:43:30.936Z,2.73
2018-06-02T17:45:59.196Z,2.53
2018-06-02T17:48:27.455Z,2.62
2018-06-02T17:50:56.488Z,2.20
2018-06-02T17:53:24.742Z,3.33
2018-06-02T17:55:53.016Z,3.33
2018-06-02T17:58:22.033Z,4.93
2018-06-02T18:00:50.300Z,3.78
2018-06-02T18:03:19.322Z,3.80
2018-06-02T18:05:47.590Z,4.73
2018-06-02T18:08:15.859Z,4.55
2018-06-02T18:10:44.895Z,4.68
2018-06-02T18:13:13.156Z,4.83
2018-06-02T18:15:41.427Z,5.07
2018-06-02T18:18:09.680Z,4.32
2018-06-02T18:20:37.946Z,3.33
2018-06-02T18:23:06.205Z,4.50
2018-06-02T18:25:34.569Z,3.73
2018-06-02T18:28:02.828Z,3.93
2018-06-02T18:30:31.103Z,3.50
2018-06-02T18:33:00.124Z,5.30
2018-06-02T18:35:28.387Z,2.87
2018-06-02T18:37:56.647Z,3.67
2018-06-02T18:40:25.699Z,3.40
2018-06-02T18:42:53.966Z,4.70
2018-06-02T18:45:22.232Z,7.20
2018-06-02T18:47:50.493Z,9.05
2018-06-02T18:50:19.546Z,7.15
2018-06-02T18:52:47.807Z,6.18
2018-06-02T18:55:16.082Z,8.17
2018-06-02T18:57:45.276Z,6.25
2018-06-02T19:00:13.543Z,4.72
2018-06-02T19:02:41.801Z,4.87
2018-06-02T19:05:10.065Z,4.80
2018-06-02T19:07:38.327Z,5.33
2018-06-02T19:10:06.588Z,4.80
2018-06-02T19:12:34.846Z,5.70
2018-06-02T19:15:03.867Z,5.90
2018-06-02T19:17:32.123Z,5.17
2018-06-02T19:20:01.678Z,7.52
2018-06-02T19:22:29.922Z,5.10
2018-06-02T19:24:58.179Z,5.60
2018-06-02T19:27:27.207Z,6.53
2018-06-02T19:29:55.471Z,7.47
2018-06-02T19:32:23.746Z,6.63
2018-06-02T19:34:52.857Z,9.77
2018-06-02T19:37:21.955Z,7.67
2018-06-02T19:39:50.211Z,6.18
2018-06-02T19:42:18.468Z,7.50
2018-06-02T19:44:46.728Z,7.53
2018-06-02T19:47:14.995Z,6.17
2018-06-02T19:49:44.508Z,6.30
2018-06-02T19:52:12.779Z,6.50
2018-06-02T19:54:41.034Z,8.80
2018-06-02T19:57:10.068Z,7.50
2018-06-02T19:59:38.323Z,5.87
2018-06-02T20:02:07.163Z,7.70
2018-06-02T20:04:35.423Z,6.30
2018-06-02T20:07:03.692Z,8.23
2018-06-02T20:09:31.945Z,7.05
2018-06-02T20:12:01.688Z,8.50
2018-06-02T20:14:30.059Z,11.67
2018-06-02T20:16:58.349Z,7.00
2018-06-02T20:19:26.611Z,10.35
2018-06-02T20:21:55.640Z,8.47
2018-06-02T20:24:23.894Z,8.83
2018-06-02T20:26:52.158Z,6.30
2018-06-02T20:29:21.213Z,7.68
2018-06-02T20:31:49.472Z,6.40
2018-06-02T20:34:17.741Z,6.30
2018-06-02T20:36:46.003Z,8.43
2018-06-02T20:39:15.036Z,6.63
2018-06-02T20:41:45.312Z,6.50
2018-06-02T20:44:15.572Z,6.07
2018-06-02T20:46:43.834Z,6.03
2018-06-02T20:49:12.867Z,11.93
2018-06-02T20:51:41.131Z,6.70
2018-06-02T20:54:09.383Z,6.03
2018-06-02T20:56:38.525Z,7.23
2018-06-02T20:59:06.779Z,6.17
2018-06-02T21:01:35.815Z,7.83
2018-06-02T21:04:04.075Z,7.97
2018-06-02T21:06:32.344Z,6.13
2018-06-02T21:09:00.672Z,7.17
2018-06-02T21:11:29.634Z,9.50
2018-06-02T21:13:57.904Z,9.10
2018-06-02T21:16:26.411Z,5.93
2018-06-02T21:18:54.665Z,6.20
2018-06-02T21:21:23.689Z,7.53
2018-06-02T21:23:51.958Z,7.63
2018-06-02T21:26:20.208Z,9.30
2018-06-02T21:28:49.243Z,8.77
2018-06-02T21:31:17.512Z,7.47
2018-06-02T21:33:45.801Z,7.40
2018-06-02T21:36:14.803Z,6.87
2018-06-02T21:38:43.064Z,6.03
2018-06-02T21:41:11.314Z,7.20
2018-06-02T21:43:39.580Z,6.43
2018-06-02T21:46:07.851Z,6.90
2018-06-02T21:48:36.103Z,6.03
2018-06-02T21:51:04.359Z,5.23
2018-06-02T21:53:32.635Z,6.45
2018-06-02T21:56:02.475Z,7.06
2018-06-02T21:58:30.738Z,6.17
2018-06-02T22:00:59.009Z,7.70
2018-06-02T22:03:28.038Z,7.70
2018-06-02T22:05:56.299Z,7.23
2018-06-02T22:08:24.595Z,6.30
2018-06-02T22:10:52.862Z,5.93
2018-06-02T22:13:21.125Z,7.03
2018-06-02T22:15:50.459Z,8.82
2018-06-02T22:18:18.724Z,7.20
2018-06-02T22:20:47.012Z,6.33
2018-06-02T22:23:15.278Z,5.87
2018-06-02T22:25:45.541Z,5.67
2018-06-02T22:28:13.808Z,4.37
2018-06-02T22:30:42.065Z,5.23
2018-06-02T22:33:11.096Z,6.87
2018-06-02T22:35:39.343Z,6.57
2018-06-02T22:38:09.607Z,6.63
2018-06-02T22:40:37.872Z,6.40
2018-06-02T22:43:06.127Z,6.87
2018-06-02T22:45:35.152Z,8.67
2018-06-02T22:48:03.423Z,5.80
2018-06-02T22:50:31.671Z,6.37
2018-06-02T22:52:59.952Z,6.97
2018-06-02T22:55:28.970Z,6.30
2018-06-02T22:57:57.998Z,5.03
2018-06-02T23:00:26.263Z,5.63
2018-06-02T23:02:54.523Z,6.90
2018-06-02T23:05:23.540Z,7.07
2018-06-02T23:07:51.807Z,4.35
2018-06-02T23:10:20.836Z,6.50
2018-06-02T23:12:49.102Z,5.10
2018-06-02T23:15:17.355Z,4.60
2018-06-02T23:17:46.403Z,6.00
2018-06-02T23:20:14.660Z,7.07
2018-06-02T23:22:42.906Z,4.70
2018-06-02T23:25:11.419Z,5.80
2018-06-02T23:27:39.669Z,5.63
2018-06-02T23:30:07.924Z,8.03
2018-06-02T23:32:36.198Z,5.07
2018-06-02T23:35:04.451Z,6.87
2018-06-02T23:37:32.720Z,5.03
2018-06-02T23:40:02.772Z,7.54
2018-06-02T23:42:31.032Z,6.47
2018-06-02T23:44:59.313Z,8.83
2018-06-02T23:47:27.550Z,4.90
2018-06-02T23:49:55.859Z,7.82
2018-06-02T23:52:24.131Z,7.90
2018-06-02T23:54:53.158Z,5.82
2018-06-02T23:57:21.415Z,6.57
2018-06-02T23:59:50.455Z,6.25
